e-Mail: Password: Lost your password? Click here. - Register a new user

c h a v e z j u a r e z . c o m

Weather - Tiempo - Wetter - Temps

METAR DATA MMMX (Mexico City)

Mexico City / Licenci, Mexico (MMMX) 19-26N 099-06W
Feb 28, 2020 - 09:15 AM EST / 2020.02.28 1415 UTC
Wind: from the E (090 degrees) at 3 MPH (3 KT):0
Visibility: 7 mile(s):0
Sky conditions: clear
Temperature: 55 F (13 C)
Dew Point: 37 F (3 C)
Relative Humidity: 50%
Pressure (altimeter): 30.46 in. Hg (1031 hPa)
ob: MMMX 281415Z 09003KT 7SM SKC 13/03 A3046 NOSIG RMK HZY
cycle: 14

Mexico City

St. Prex




Current weather alarms for Switzerland


www.wetteralarm.ch